Fascination — C6FM9 — position and weather

sailwx.info

Track history (hours):
 
Tides and Currents Weather Stations Pressure Air Temp Water Temp Dewpoint Dewpoint Depression Visibility Wind Speed Wind Dir Waves Ship Positions

Fascination

Operator: Carnival Cruise Lines

Last reported at 2019-Dec-11 10:35 UTC. Time now 2019-Dec-12 09:01 UTC.
Position N 17°16' W 062°46'.

Type: Ship. MMSI: 309682000.

Date/timePositionNaut miles runAvg speedWind from/ knotsBaromVisibWave heightAir tempDewpointWater temp
2019-Dec-11 10:35N 17°16' W 062°46'15 9.6
2019-Dec-11 09:00N 17°20' W 063°01'14 8.7
2019-Dec-11 07:26N 17°33' W 063°07'12 8.7
2019-Dec-11 06:00N 17°45' W 063°10'1510.0
2019-Dec-11 04:29N 17°52' W 063°24'10 9.9
2019-Dec-11 03:26N 17°53' W 063°35'4 9.1
2019-Dec-11 03:00N 17°54' W 063°39'15 3.8
2019-Dec-10 22:58N 18°02' W 063°25'1211.5
2019-Dec-10 21:54N 18°01' W 063°12'9 5.6
2019-Dec-10 20:16N 18°01' W 063°03'0 0.0
2019-Dec-10 18:30N 18°01' W 063°03'0 0.0
2019-Dec-10 16:17N 18°01' W 063°03'0 0.0
2019-Dec-10 14:19N 18°01' W 063°03'0 0.0
2019-Dec-10 12:58N 18°01' W 063°03'0 0.0
2019-Dec-10 12:27N 18°01' W 063°03'0 0.3
2019-Dec-10 11:24N 18°00' W 063°03'8 8.0
2019-Dec-10 10:22N 18°01' W 063°12'9 9.8
2019-Dec-10 09:27N 18°01' W 063°21'5 9.5
2019-Dec-10 08:59N 18°01' W 063°26'83 7.5
2019-Dec-09 22:00N 18°12' W 064°52'8 7.7
2019-Dec-09 20:56N 18°20' W 064°56'0 0.0
2019-Dec-09 20:25N 18°20' W 064°56'0 0.0
2019-Dec-09 18:00N 18°20' W 064°56'25 2.2
2019-Dec-09 07:00N 18°38' W 065°13'23 9.0
2019-Dec-09 04:25N 18°57' W 065°27'1211.5
2019-Dec-09 03:21N 18°58' W 065°40'40 8.2
2019-Dec-08 22:30N 18°28' W 066°07'1 0.3
2019-Dec-08 20:26N 18°28' W 066°07'0 0.0
2019-Dec-08 19:56N 18°28' W 066°07'0 0.0
2019-Dec-08 17:55N 18°28' W 066°07'0 0.0
2019-Dec-08 16:55N 18°28' W 066°07'0 0.0
2019-Dec-08 12:59N 18°28' W 066°07'0 0.0
2019-Dec-08 11:00N 18°28' W 066°07'3 2.6
2019-Dec-08 10:00N 18°30' W 066°08'1412.9
2019-Dec-08 08:53N 18°44' W 066°02'8315.4
2019-Dec-08 03:30N 18°06' W 064°44'34716.1
2019-Dec-07 06:00N 13°30' W 061°06'19 0.6 080 / 201012.010.8 27.022.625.0
2019-Dec-06 00:00N 13°48' W 061°12'83 4.6 090 / 151013.0 5.4 28.023.728.0
2019-Dec-05 06:00N 15°06' W 061°42'156 7.5 100 / 231014.010.8 28.022.126.0
2019-Dec-04 09:19N 17°22' W 063°01'9 9.1
2019-Dec-04 08:23N 17°29' W 063°06'19 8.3
2019-Dec-04 06:06N 17°47' W 063°13'543.2
2019-Dec-04 06:00N 17°42' W 063°12'1016.5 130 / 161014.010.8 28.025.226.0
2019-Dec-04 05:23N 17°50' W 063°19'4 8.8
2019-Dec-04 04:59N 17°51' W 063°22'9 8.8
2019-Dec-04 03:57N 17°53' W 063°31'4 9.0
2019-Dec-04 03:29N 17°53' W 063°36'9 9.0
2019-Dec-04 02:27N 17°57' W 063°45'910.2
2019-Dec-04 01:34N 18°06' W 063°46'11 8.3
2019-Dec-04 00:16N 18°07' W 063°34'810.1
2019-Dec-03 23:30N 18°03' W 063°27'2210.5
2019-Dec-03 21:25N 18°00' W 063°04'2 1.8
2019-Dec-03 20:34N 18°01' W 063°03'0 0.0
2019-Dec-03 19:46N 18°01' W 063°03'1 0.1
2019-Dec-03 11:04N 18°00' W 063°04'15 9.6
2019-Dec-03 09:29N 18°01' W 063°20'910.3
2019-Dec-03 08:35N 18°02' W 063°30'1 9.8
2019-Dec-03 08:26N 18°02' W 063°31'9 8.7
2019-Dec-03 07:26N 18°08' W 063°37'62 7.3
2019-Dec-02 23:00N 18°10' W 064°42'510.4
2019-Dec-02 22:30N 18°10' W 064°48'10 9.4
2019-Dec-02 21:29N 18°17' W 064°55'3 1.6
2019-Dec-02 19:28N 18°20' W 064°55'0 0.0
2019-Dec-02 18:58N 18°20' W 064°55'0 0.0
2019-Dec-02 18:28N 18°20' W 064°55'0 0.0
2019-Dec-02 17:28N 18°20' W 064°55'0 0.0
2019-Dec-02 16:51N 18°20' W 064°55'0 0.0
2019-Dec-02 15:45N 18°20' W 064°55'0 0.0
2019-Dec-02 12:44N 18°20' W 064°55'0 0.0
2019-Dec-02 11:25N 18°20' W 064°55'15 5.0
2019-Dec-02 08:30N 18°23' W 065°10'1110.7
2019-Dec-02 07:30N 18°34' W 065°12'510.6
2019-Dec-02 07:00N 18°39' W 065°13'1010.5
2019-Dec-02 06:00N 18°49' W 065°15'14 9.0
2019-Dec-02 04:30N 18°58' W 065°26'611.2
2019-Dec-02 04:00N 18°58' W 065°32'611.2
2019-Dec-02 03:30N 18°58' W 065°38'36 9.0
2019-Dec-01 23:30N 18°35' W 066°07'7 2.0
2019-Dec-01 19:59N 18°28' W 066°07'0 0.0
2019-Dec-01 18:28N 18°28' W 066°07'0 0.0
2019-Dec-01 16:30N 18°28' W 066°07'0 0.0
2019-Dec-01 16:00N 18°28' W 066°07'0 0.0
2019-Dec-01 11:52N 18°28' W 066°07'  
Track history (hours):
 
Tides and Currents Weather Stations Pressure Air Temp Water Temp Dewpoint Dewpoint Depression Visibility Wind Speed Wind Dir Waves Ship Positions

Fascination

Operator: Carnival Cruise Lines

Last reported at 2019-Dec-11 10:35 UTC. Time now 2019-Dec-12 09:01 UTC.
Position N 17°16' W 062°46'.

Type: Ship. MMSI: 309682000.

Date/timePositionNaut miles runAvg speedWind from/ knotsBaromVisibWave heightAir tempDewpointWater temp
2019-Dec-11 10:35N 17°16' W 062°46'15 9.6
2019-Dec-11 09:00N 17°20' W 063°01'14 8.7
2019-Dec-11 07:26N 17°33' W 063°07'12 8.7
2019-Dec-11 06:00N 17°45' W 063°10'1510.0
2019-Dec-11 04:29N 17°52' W 063°24'10 9.9
2019-Dec-11 03:26N 17°53' W 063°35'4 9.1
2019-Dec-11 03:00N 17°54' W 063°39'15 3.8
2019-Dec-10 22:58N 18°02' W 063°25'1211.5
2019-Dec-10 21:54N 18°01' W 063°12'9 5.6
2019-Dec-10 20:16N 18°01' W 063°03'0 0.0
2019-Dec-10 18:30N 18°01' W 063°03'0 0.0
2019-Dec-10 16:17N 18°01' W 063°03'0 0.0
2019-Dec-10 14:19N 18°01' W 063°03'0 0.0
2019-Dec-10 12:58N 18°01' W 063°03'0 0.0
2019-Dec-10 12:27N 18°01' W 063°03'0 0.3
2019-Dec-10 11:24N 18°00' W 063°03'8 8.0
2019-Dec-10 10:22N 18°01' W 063°12'9 9.8
2019-Dec-10 09:27N 18°01' W 063°21'5 9.5
2019-Dec-10 08:59N 18°01' W 063°26'83 7.5
2019-Dec-09 22:00N 18°12' W 064°52'8 7.7
2019-Dec-09 20:56N 18°20' W 064°56'0 0.0
2019-Dec-09 20:25N 18°20' W 064°56'0 0.0
2019-Dec-09 18:00N 18°20' W 064°56'25 2.2
2019-Dec-09 07:00N 18°38' W 065°13'23 9.0
2019-Dec-09 04:25N 18°57' W 065°27'1211.5
2019-Dec-09 03:21N 18°58' W 065°40'40 8.2
2019-Dec-08 22:30N 18°28' W 066°07'1 0.3
2019-Dec-08 20:26N 18°28' W 066°07'0 0.0
2019-Dec-08 19:56N 18°28' W 066°07'0 0.0
2019-Dec-08 17:55N 18°28' W 066°07'0 0.0
2019-Dec-08 16:55N 18°28' W 066°07'0 0.0
2019-Dec-08 12:59N 18°28' W 066°07'0 0.0
2019-Dec-08 11:00N 18°28' W 066°07'3 2.6
2019-Dec-08 10:00N 18°30' W 066°08'1412.9
2019-Dec-08 08:53N 18°44' W 066°02'8315.4
2019-Dec-08 03:30N 18°06' W 064°44'34716.1
2019-Dec-07 06:00N 13°30' W 061°06'19 0.6 080 / 201012.010.8 27.022.625.0
2019-Dec-06 00:00N 13°48' W 061°12'83 4.6 090 / 151013.0 5.4 28.023.728.0
2019-Dec-05 06:00N 15°06' W 061°42'156 7.5 100 / 231014.010.8 28.022.126.0
2019-Dec-04 09:19N 17°22' W 063°01'9 9.1
2019-Dec-04 08:23N 17°29' W 063°06'19 8.3
2019-Dec-04 06:06N 17°47' W 063°13'543.2
2019-Dec-04 06:00N 17°42' W 063°12'1016.5 130 / 161014.010.8 28.025.226.0
2019-Dec-04 05:23N 17°50' W 063°19'4 8.8
2019-Dec-04 04:59N 17°51' W 063°22'9 8.8
2019-Dec-04 03:57N 17°53' W 063°31'4 9.0
2019-Dec-04 03:29N 17°53' W 063°36'9 9.0
2019-Dec-04 02:27N 17°57' W 063°45'910.2
2019-Dec-04 01:34N 18°06' W 063°46'11 8.3
2019-Dec-04 00:16N 18°07' W 063°34'810.1
2019-Dec-03 23:30N 18°03' W 063°27'2210.5
2019-Dec-03 21:25N 18°00' W 063°04'2 1.8
2019-Dec-03 20:34N 18°01' W 063°03'0 0.0
2019-Dec-03 19:46N 18°01' W 063°03'1 0.1
2019-Dec-03 11:04N 18°00' W 063°04'15 9.6
2019-Dec-03 09:29N 18°01' W 063°20'910.3
2019-Dec-03 08:35N 18°02' W 063°30'1 9.8
2019-Dec-03 08:26N 18°02' W 063°31'9 8.7
2019-Dec-03 07:26N 18°08' W 063°37'62 7.3
2019-Dec-02 23:00N 18°10' W 064°42'510.4
2019-Dec-02 22:30N 18°10' W 064°48'10 9.4
2019-Dec-02 21:29N 18°17' W 064°55'3 1.6
2019-Dec-02 19:28N 18°20' W 064°55'0 0.0
2019-Dec-02 18:58N 18°20' W 064°55'0 0.0
2019-Dec-02 18:28N 18°20' W 064°55'0 0.0
2019-Dec-02 17:28N 18°20' W 064°55'0 0.0
2019-Dec-02 16:51N 18°20' W 064°55'0 0.0
2019-Dec-02 15:45N 18°20' W 064°55'0 0.0
2019-Dec-02 12:44N 18°20' W 064°55'0 0.0
2019-Dec-02 11:25N 18°20' W 064°55'15 5.0
2019-Dec-02 08:30N 18°23' W 065°10'1110.7
2019-Dec-02 07:30N 18°34' W 065°12'510.6
2019-Dec-02 07:00N 18°39' W 065°13'1010.5
2019-Dec-02 06:00N 18°49' W 065°15'14 9.0
2019-Dec-02 04:30N 18°58' W 065°26'611.2
2019-Dec-02 04:00N 18°58' W 065°32'611.2
2019-Dec-02 03:30N 18°58' W 065°38'36 9.0
2019-Dec-01 23:30N 18°35' W 066°07'7 2.0
2019-Dec-01 19:59N 18°28' W 066°07'0 0.0
2019-Dec-01 18:28N 18°28' W 066°07'0 0.0
2019-Dec-01 16:30N 18°28' W 066°07'0 0.0
2019-Dec-01 16:00N 18°28' W 066°07'0 0.0
2019-Dec-01 11:52N 18°28' W 066°07'  

Dump ship's entire track history